Time;durP1;ratioP1;P1;durP2;ratioP2;P2;SDS_P1;SDS_P2;PMS_P1;PMS_P2;Temp;Humidity;BMP_temperature;BMP_pressure;BME280_temperature;BME280_humidity;BME280_pressure;Samples;Min_cycle;Max_cycle;Signal;HPM_P1;HPM_P2
2024/04/23 00:01:21;;;;;;;5.80;4.80;;;2.50;99.90;;;;;;5452320;26;20218;-60
2024/04/23 00:03:47;;;;;;;6.20;5.40;;;2.50;99.90;;;;;;5452779;26;20245;-59
2024/04/23 00:06:16;;;;;;;7.07;5.07;;;2.40;99.90;;;;;;5452506;26;20255;-59
2024/04/23 00:08:41;;;;;;;5.05;4.50;;;2.40;99.90;;;;;;5452592;26;20318;-59
2024/04/23 00:11:12;;;;;;;7.63;5.03;;;2.40;99.90;;;;;;5452413;26;20230;-59
2024/04/23 00:13:38;;;;;;;6.20;5.38;;;2.40;99.90;;;;;;5452379;26;20513;-59
2024/04/23 00:16:07;;;;;;;7.77;5.57;;;2.30;99.90;;;;;;5452249;26;20311;-59
2024/04/23 00:18:33;;;;;;;8.20;5.20;;;2.30;99.90;;;;;;5452530;26;20992;-58
2024/04/23 00:21:01;;;;;;;5.63;5.03;;;2.30;99.90;;;;;;5452300;26;20314;-58
2024/04/23 00:23:27;;;;;;;6.50;5.22;;;2.30;99.90;;;;;;5452308;26;20578;-60
2024/04/23 00:25:56;;;;;;;5.30;4.77;;;2.30;99.90;;;;;;5452283;26;20608;-60
2024/04/23 00:28:24;;;;;;;5.47;4.97;;;2.30;99.90;;;;;;5452781;26;20754;-58
2024/04/23 00:30:52;;;;;;;7.53;5.65;;;2.30;99.90;;;;;;5456048;26;20832;-61
2024/04/23 00:33:18;;;;;;;6.63;5.30;;;2.30;99.90;;;;;;5456191;26;20295;-60
2024/04/23 00:35:46;;;;;;;5.63;4.77;;;2.30;99.90;;;;;;5456240;26;20222;-60
2024/04/23 00:38:12;;;;;;;4.85;4.35;;;2.30;99.90;;;;;;5455567;26;20347;-58
2024/04/23 00:40:41;;;;;;;6.03;4.87;;;2.20;99.90;;;;;;5455835;26;20610;-60
2024/04/23 00:43:06;;;;;;;4.93;4.43;;;2.20;99.90;;;;;;5455563;26;20241;-60
2024/04/23 00:45:45;;;;;;;5.10;4.60;;;2.20;99.90;;;;;;5455764;26;20773;-60
2024/04/23 00:48:12;;;;;;;5.28;4.78;;;2.20;99.90;;;;;;5455455;26;20294;-58
2024/04/23 00:50:41;;;;;;;4.90;4.40;;;2.10;99.90;;;;;;5455706;26;20288;-59
2024/04/23 00:53:08;;;;;;;6.05;4.80;;;2.10;99.90;;;;;;5455349;26;20230;-60
2024/04/23 00:55:37;;;;;;;5.30;4.53;;;2.10;99.90;;;;;;5455320;26;20795;-59
2024/04/23 00:58:04;;;;;;;5.53;4.70;;;2.10;99.90;;;;;;5455597;26;20357;-60
2024/04/23 01:00:32;;;;;;;5.30;4.80;;;2.00;99.90;;;;;;5455575;26;20266;-60
2024/04/23 01:03:01;;;;;;;12.95;5.18;;;2.00;99.90;;;;;;5455466;26;20257;-60
2024/04/23 01:05:30;;;;;;;5.22;4.65;;;2.00;99.90;;;;;;5455573;26;20342;-60
2024/04/23 01:07:55;;;;;;;5.68;4.97;;;2.00;99.90;;;;;;5455998;26;20265;-59
2024/04/23 01:10:24;;;;;;;7.23;5.37;;;2.00;99.90;;;;;;5455757;26;20317;-60
2024/04/23 01:12:50;;;;;;;5.43;4.70;;;2.00;99.90;;;;;;5455686;26;20351;-60
2024/04/23 01:15:20;;;;;;;5.63;4.53;;;1.90;99.90;;;;;;5454792;26;20217;-59
2024/04/23 01:17:48;;;;;;;5.20;4.70;;;1.90;99.90;;;;;;5454873;26;20210;-59
2024/04/23 01:20:21;;;;;;;6.63;5.25;;;1.90;99.90;;;;;;5454750;26;20253;-59
2024/04/23 01:22:57;;;;;;;5.32;4.75;;;1.80;99.90;;;;;;5455152;26;20302;-60
2024/04/23 01:25:26;;;;;;;5.72;4.15;;;1.80;99.90;;;;;;5454806;26;20716;-59
2024/04/23 01:27:55;;;;;;;5.32;4.68;;;1.80;99.90;;;;;;5454883;26;20218;-60
2024/04/23 01:30:25;;;;;;;6.07;4.68;;;1.70;99.90;;;;;;5454680;26;20210;-60
2024/04/23 01:32:52;;;;;;;5.55;4.90;;;1.70;99.90;;;;;;5454715;26;20273;-60
2024/04/23 01:35:21;;;;;;;6.25;5.60;;;1.70;99.90;;;;;;5454620;26;20246;-60
2024/04/23 01:37:50;;;;;;;5.18;4.68;;;1.60;99.90;;;;;;5454748;26;20756;-59
2024/04/23 01:40:19;;;;;;;4.53;4.07;;;1.60;99.90;;;;;;5454232;26;20381;-59
2024/04/23 01:42:45;;;;;;;5.38;4.82;;;1.60;99.90;;;;;;5454649;26;20334;-60
2024/04/23 01:45:17;;;;;;;8.00;5.28;;;1.60;99.90;;;;;;5454594;26;20261;-60
2024/04/23 01:47:44;;;;;;;6.93;5.20;;;1.60;99.90;;;;;;5455534;26;20204;-61
2024/04/23 01:50:12;;;;;;;8.52;5.18;;;1.50;99.90;;;;;;5456010;26;20219;-60
2024/04/23 01:52:38;;;;;;;6.68;5.35;;;1.50;99.90;;;;;;5455111;26;20292;-61
2024/04/23 01:55:08;;;;;;;6.25;5.35;;;1.40;99.90;;;;;;5454588;26;20225;-59
2024/04/23 01:57:34;;;;;;;6.82;5.45;;;1.40;99.90;;;;;;5454791;26;20256;-60
2024/04/23 02:00:05;;;;;;;6.97;4.57;;;1.40;99.90;;;;;;5454817;26;20221;-61
2024/04/23 02:02:36;;;;;;;5.40;4.85;;;1.40;99.90;;;;;;5464944;21;20738;-60
2024/04/23 02:05:05;;;;;;;7.70;5.55;;;1.40;99.90;;;;;;5420299;26;20206;-60
2024/04/23 02:07:31;;;;;;;6.07;5.07;;;1.30;99.90;;;;;;5419941;26;20682;-60
2024/04/23 02:10:01;;;;;;;6.43;5.47;;;1.30;99.90;;;;;;5419973;26;20238;-61
2024/04/23 02:12:27;;;;;;;7.43;5.32;;;1.40;99.90;;;;;;5420272;26;20585;-60
2024/04/23 02:14:55;;;;;;;7.43;5.60;;;1.40;99.90;;;;;;5420831;26;20234;-60
2024/04/23 02:17:21;;;;;;;5.80;5.20;;;1.40;99.90;;;;;;5420520;26;20941;-60
2024/04/23 02:19:52;;;;;;;8.10;5.70;;;1.40;99.90;;;;;;5420263;26;20223;-62
2024/04/23 02:22:19;;;;;;;7.55;5.25;;;1.40;99.90;;;;;;5419857;26;20524;-61
2024/04/23 02:24:47;;;;;;;5.00;4.47;;;1.30;99.90;;;;;;5419535;26;20218;-61
2024/04/23 02:27:13;;;;;;;6.22;5.35;;;1.30;99.90;;;;;;5419829;26;20322;-61
2024/04/23 02:29:42;;;;;;;9.47;6.30;;;1.30;99.90;;;;;;5419698;26;20230;-62
2024/04/23 02:32:07;;;;;;;7.32;5.72;;;1.20;99.90;;;;;;5419793;26;20740;-61
2024/04/23 02:34:36;;;;;;;7.57;6.07;;;1.20;99.90;;;;;;5419913;26;20226;-61
2024/04/23 02:37:04;;;;;;;9.82;7.10;;;1.20;99.90;;;;;;5419507;26;20221;-61
2024/04/23 02:39:33;;;;;;;6.60;5.70;;;1.20;99.90;;;;;;5419451;26;20211;-60
2024/04/23 02:41:58;;;;;;;7.68;6.78;;;1.20;99.90;;;;;;5419893;26;20802;-60
2024/04/23 02:44:29;;;;;;;6.63;5.97;;;1.10;99.90;;;;;;5420150;26;20215;-60
2024/04/23 02:46:56;;;;;;;6.70;5.53;;;1.10;99.90;;;;;;5420050;26;20315;-60
2024/04/23 02:49:24;;;;;;;7.63;6.80;;;1.00;99.90;;;;;;5420102;26;20690;-61
2024/04/23 02:51:51;;;;;;;8.73;6.78;;;1.00;99.90;;;;;;5418517;26;20235;-62
2024/04/23 02:54:22;;;;;;;8.20;6.78;;;1.00;99.90;;;;;;5419329;26;20324;-61
2024/04/23 02:56:48;;;;;;;6.60;5.88;;;1.00;99.90;;;;;;5419344;26;20269;-61
2024/04/23 02:59:17;;;;;;;8.02;6.68;;;0.90;99.90;;;;;;5418992;26;20264;-61
2024/04/23 03:01:43;;;;;;;11.07;7.78;;;0.90;99.90;;;;;;5418680;26;20230;-61
2024/04/23 03:04:11;;;;;;;9.63;8.10;;;0.90;99.90;;;;;;5420634;26;20213;-60
2024/04/23 03:06:37;;;;;;;11.85;7.78;;;1.00;99.90;;;;;;5430183;26;20809;-61
2024/04/23 03:09:06;;;;;;;9.87;7.30;;;0.90;99.90;;;;;;5430370;26;20277;-60
2024/04/23 03:11:34;;;;;;;9.77;7.40;;;0.90;99.90;;;;;;5424410;26;20550;-61
2024/04/23 03:14:03;;;;;;;8.75;7.35;;;0.90;99.90;;;;;;5425946;26;20270;-60
2024/04/23 03:16:28;;;;;;;10.35;7.10;;;0.90;99.90;;;;;;5425969;26;20280;-59
2024/04/23 03:18:57;;;;;;;11.03;8.70;;;0.90;99.90;;;;;;5428279;26;20230;-60
2024/04/23 03:21:22;;;;;;;10.50;8.10;;;0.90;99.90;;;;;;5425273;26;20752;-61
2024/04/23 03:23:51;;;;;;;8.63;7.67;;;0.90;99.90;;;;;;5421161;26;20327;-61
2024/04/23 03:26:17;;;;;;;10.02;7.80;;;0.90;99.90;;;;;;5423316;26;20245;-60
2024/04/23 03:28:48;;;;;;;11.57;8.33;;;0.90;99.90;;;;;;5430851;26;20217;-61
2024/04/23 03:31:14;;;;;;;10.48;8.90;;;0.90;99.90;;;;;;5431515;26;20215;-60
2024/04/23 03:33:42;;;;;;;9.97;7.77;;;0.90;99.90;;;;;;5427433;26;20658;-60
2024/04/23 03:36:08;;;;;;;10.70;7.35;;;0.90;99.90;;;;;;5424973;26;20443;-61
2024/04/23 03:38:36;;;;;;;11.70;7.80;;;0.90;99.90;;;;;;5419985;26;20223;-60
2024/04/23 03:41:05;;;;;;;10.10;8.63;;;0.90;99.90;;;;;;5418966;26;20586;-61
2024/04/23 03:43:33;;;;;;;9.45;7.45;;;0.90;99.90;;;;;;5419535;26;20328;-60
2024/04/23 03:46:04;;;;;;;9.75;8.20;;;0.90;99.90;;;;;;5419153;26;20257;-60
2024/04/23 03:48:31;;;;;;;9.30;8.30;;;0.90;99.90;;;;;;5420740;26;20328;-61
2024/04/23 03:50:59;;;;;;;10.45;7.85;;;0.90;99.90;;;;;;5419917;26;20713;-61
2024/04/23 03:53:25;;;;;;;9.10;7.35;;;0.90;99.90;;;;;;5419045;26;20222;-61
2024/04/23 03:55:53;;;;;;;12.03;7.60;;;0.90;99.90;;;;;;5419332;26;20256;-62
2024/04/23 03:58:19;;;;;;;9.30;7.22;;;0.80;99.90;;;;;;5419153;26;20322;-60
2024/04/23 04:00:47;;;;;;;9.30;7.50;;;0.80;99.90;;;;;;5419127;26;20711;-59
2024/04/23 04:06:10;;;;;;;11.90;8.80;;;0.70;99.90;;;;;;5421939;26;20249;-60
2024/04/23 04:08:41;;;;;;;10.57;8.15;;;0.70;99.90;;;;;;5419453;26;20218;-60
2024/04/23 04:13:55;;;;;;;9.43;7.32;;;0.70;99.90;;;;;;5551432;25;20576;-60
2024/04/23 04:16:21;;;;;;;11.35;7.88;;;0.70;99.90;;;;;;5514358;26;20308;-61
2024/04/23 04:18:49;;;;;;;9.20;8.30;;;0.60;99.90;;;;;;5519720;26;20227;-60
2024/04/23 04:21:15;;;;;;;9.20;8.27;;;0.60;99.90;;;;;;5518786;26;20264;-61
2024/04/23 04:23:44;;;;;;;9.43;8.30;;;0.60;99.90;;;;;;5514539;26;20682;-60
2024/04/23 04:26:11;;;;;;;10.35;8.40;;;0.60;99.90;;;;;;5510275;26;20951;-60
2024/04/23 04:28:40;;;;;;;10.98;9.32;;;0.60;99.90;;;;;;5510774;26;20209;-61
2024/04/23 04:31:09;;;;;;;9.15;7.72;;;0.70;99.90;;;;;;5509952;26;20213;-59
2024/04/23 04:33:38;;;;;;;11.60;9.07;;;0.80;99.90;;;;;;5509653;26;20284;-60
2024/04/23 04:36:04;;;;;;;11.48;8.50;;;1.00;99.90;;;;;;5509801;26;20245;-61
2024/04/23 04:38:33;;;;;;;10.70;9.10;;;1.20;99.90;;;;;;5510210;26;20255;-61
2024/04/23 04:40:59;;;;;;;9.55;8.55;;;1.40;99.90;;;;;;5510024;26;20315;-59
2024/04/23 04:43:27;;;;;;;8.53;7.70;;;1.70;99.90;;;;;;5509575;26;20244;-60
2024/04/23 04:45:53;;;;;;;8.23;7.18;;;1.90;99.90;;;;;;5509905;26;20505;-61
2024/04/23 04:48:24;;;;;;;10.93;9.40;;;2.00;99.90;;;;;;5509509;26;20428;-61
2024/04/23 04:50:50;;;;;;;9.20;8.15;;;2.20;99.90;;;;;;5509823;26;20710;-60
2024/04/23 04:53:18;;;;;;;10.82;8.43;;;2.40;99.90;;;;;;5509408;26;20229;-60
2024/04/23 04:55:44;;;;;;;8.77;6.72;;;2.70;99.90;;;;;;5509561;26;20216;-60
2024/04/23 04:58:13;;;;;;;14.70;7.23;;;2.90;99.90;;;;;;5509633;26;20309;-60
2024/04/23 05:00:38;;;;;;;8.20;7.40;;;3.10;99.90;;;;;;5509209;26;20873;-59
2024/04/23 05:03:07;;;;;;;8.40;7.60;;;3.30;99.90;;;;;;5509185;26;20322;-62
2024/04/23 05:05:35;;;;;;;8.23;7.32;;;3.50;99.90;;;;;;5509143;26;20615;-60
2024/04/23 05:08:04;;;;;;;9.20;8.25;;;3.60;99.90;;;;;;5510339;26;20217;-61
2024/04/23 05:10:30;;;;;;;9.10;7.78;;;3.70;99.90;;;;;;5510873;26;20218;-60
2024/04/23 05:12:58;;;;;;;8.20;7.30;;;3.80;99.90;;;;;;5510931;26;20259;-62
2024/04/23 05:15:24;;;;;;;8.80;6.97;;;4.00;99.90;;;;;;5510050;26;20221;-61
2024/04/23 05:17:52;;;;;;;7.97;7.20;;;4.20;99.90;;;;;;5512737;26;20219;-60
2024/04/23 05:20:18;;;;;;;7.95;7.20;;;4.30;99.90;;;;;;5515084;26;20499;-62
2024/04/23 05:22:49;;;;;;;7.83;7.03;;;4.40;99.90;;;;;;5510480;26;20243;-61
2024/04/23 05:25:15;;;;;;;7.80;7.10;;;4.60;99.90;;;;;;5492688;26;20566;-61
2024/04/23 05:27:44;;;;;;;8.57;7.78;;;4.60;99.90;;;;;;5493234;26;20227;-61
2024/04/23 05:32:46;;;;;;;8.70;7.43;;;4.50;99.90;;;;;;5494785;26;20296;-59
2024/04/23 05:32:59;;;;;;;8.60;6.88;;;4.40;99.90;;;;;;5495072;26;20260;-60
2024/04/23 05:35:27;;;;;;;11.45;7.85;;;4.10;99.90;;;;;;5495654;26;20202;-59
2024/04/23 05:37:58;;;;;;;8.60;7.68;;;3.80;99.90;;;;;;5498109;26;20214;-58
2024/04/23 05:40:26;;;;;;;7.85;7.05;;;3.70;99.90;;;;;;5493985;26;20603;-62
2024/04/23 05:42:55;;;;;;;7.10;6.07;;;3.50;99.90;;;;;;5492625;26;20295;-61
2024/04/23 05:45:23;;;;;;;9.45;8.52;;;3.50;99.90;;;;;;5494264;26;20335;-62
2024/04/23 05:48:29;;;;;;;8.82;8.00;;;3.40;99.90;;;;;;5497865;26;20250;-61
2024/04/23 05:51:35;;;;;;;9.32;8.30;;;3.40;99.90;;;;;;5498206;26;20298;-61
2024/04/23 05:54:41;;;;;;;9.40;7.53;;;3.30;99.90;;;;;;5493686;26;20325;-60
2024/04/23 05:57:12;;;;;;;11.32;8.68;;;3.40;99.90;;;;;;5493173;26;20340;-61
2024/04/23 05:59:38;;;;;;;8.68;7.78;;;3.50;99.90;;;;;;5493488;26;20202;-61
2024/04/23 06:02:06;;;;;;;8.90;7.37;;;3.60;99.90;;;;;;5494222;26;20229;-61
2024/04/23 06:04:35;;;;;;;10.30;7.85;;;3.70;99.90;;;;;;5492919;26;20230;-61
2024/04/23 06:07:00;;;;;;;16.15;8.77;;;3.80;99.90;;;;;;5492877;26;20645;-61
2024/04/23 06:09:29;;;;;;;27.23;8.20;;;3.90;99.90;;;;;;5493256;26;20223;-61
2024/04/23 06:11:55;;;;;;;12.25;8.00;;;3.90;99.90;;;;;;5491839;26;20258;-61
2024/04/23 06:14:26;;;;;;;11.82;8.25;;;4.00;99.90;;;;;;5493278;26;20218;-61
2024/04/23 06:17:15;;;;;;;16.70;7.75;;;4.10;99.90;;;;;;5493392;26;20229;-62
2024/04/23 06:19:48;;;;;;;13.10;9.07;;;4.10;99.90;;;;;;5493446;26;20759;-62
2024/04/23 06:22:14;;;;;;;15.10;8.35;;;4.10;99.90;;;;;;5493063;26;20265;-61
2024/04/23 06:24:43;;;;;;;14.93;7.50;;;4.30;99.90;;;;;;5494012;26;20270;-62
2024/04/23 06:27:08;;;;;;;12.05;7.03;;;4.40;99.90;;;;;;5493106;26;20318;-62
2024/04/23 06:29:39;;;;;;;8.97;6.17;;;4.50;99.90;;;;;;5492104;26;20226;-62
2024/04/23 06:32:08;;;;;;;8.05;5.47;;;4.60;99.90;;;;;;5491798;26;20601;-61
2024/04/23 06:34:34;;;;;;;13.00;7.53;;;4.70;99.90;;;;;;5491403;26;20231;-62
2024/04/23 06:37:02;;;;;;;12.00;6.50;;;4.80;99.90;;;;;;5491933;26;20292;-61
2024/04/23 06:39:28;;;;;;;11.68;6.80;;;5.00;99.90;;;;;;5493986;26;20248;-60
2024/04/23 06:41:58;;;;;;;11.30;6.00;;;5.20;99.90;;;;;;5499899;26;20227;-62
2024/04/23 06:44:24;;;;;;;8.68;5.55;;;5.30;99.90;;;;;;5499139;26;20253;-62
2024/04/23 06:46:55;;;;;;;7.97;5.43;;;5.40;99.90;;;;;;5495756;26;20217;-61
2024/04/23 06:49:21;;;;;;;7.65;6.10;;;5.60;99.90;;;;;;5493200;26;20307;-64
2024/04/23 06:51:50;;;;;;;6.47;4.90;;;5.60;99.90;;;;;;5492740;26;20290;-63
2024/04/23 06:54:16;;;;;;;7.45;5.15;;;5.70;99.90;;;;;;5494358;26;20222;-61
2024/04/23 06:56:45;;;;;;;9.35;5.45;;;5.80;99.90;;;;;;5493604;26;20315;-62
2024/04/23 06:59:11;;;;;;;13.13;6.53;;;5.90;99.90;;;;;;5494386;26;20270;-62
2024/04/23 07:01:39;;;;;;;5.77;5.17;;;6.00;99.90;;;;;;5494264;26;20299;-61
2024/04/23 07:04:08;;;;;;;9.32;6.20;;;6.00;99.90;;;;;;5496136;26;20584;-63
2024/04/23 07:06:36;;;;;;;8.05;6.40;;;6.10;99.90;;;;;;5496701;26;20218;-61
2024/04/23 07:09:02;;;;;;;11.02;7.25;;;6.20;99.90;;;;;;5496730;26;20335;-63
2024/04/23 07:11:30;;;;;;;12.47;7.93;;;6.30;99.90;;;;;;5495644;26;20241;-61
2024/04/23 07:13:56;;;;;;;11.77;7.10;;;6.40;99.90;;;;;;5495578;26;20465;-62
2024/04/23 07:16:25;;;;;;;15.90;9.30;;;6.40;99.90;;;;;;5496613;26;20682;-62
2024/04/23 07:18:51;;;;;;;11.05;7.43;;;6.50;99.90;;;;;;5497684;26;20456;-63
2024/04/23 07:21:21;;;;;;;12.93;8.27;;;6.60;99.90;;;;;;5497173;26;20281;-63
2024/04/23 07:23:48;;;;;;;15.18;7.70;;;6.70;99.90;;;;;;5492716;26;20330;-62
2024/04/23 07:26:18;;;;;;;11.73;6.85;;;6.70;99.60;;;;;;5493115;26;20701;-63
2024/04/23 07:28:44;;;;;;;10.43;6.85;;;6.70;99.10;;;;;;5491909;26;20223;-60
2024/04/23 07:31:12;;;;;;;12.00;7.03;;;6.80;98.70;;;;;;5491765;26;20223;-62
2024/04/23 07:33:38;;;;;;;10.73;6.97;;;6.80;98.20;;;;;;5493153;26;20356;-62
2024/04/23 07:36:10;;;;;;;12.37;7.07;;;6.90;97.60;;;;;;5497456;26;20218;-62
2024/04/23 07:38:38;;;;;;;9.00;6.95;;;6.90;97.00;;;;;;5495161;26;20290;-63
2024/04/23 07:41:07;;;;;;;9.52;6.35;;;7.00;96.50;;;;;;5493906;26;20214;-63
2024/04/23 07:43:32;;;;;;;6.40;5.10;;;7.00;95.70;;;;;;5493514;26;20287;-63
2024/04/23 07:46:01;;;;;;;9.97;5.80;;;7.10;95.20;;;;;;5492921;26;20227;-63
2024/04/23 07:48:27;;;;;;;8.48;6.80;;;7.00;93.70;;;;;;5492329;26;20838;-63
2024/04/23 07:50:57;;;;;;;8.40;6.33;;;7.00;93.60;;;;;;5491502;26;20228;-62
2024/04/23 07:53:23;;;;;;;7.78;6.45;;;7.00;93.20;;;;;;5491592;26;20215;-62
2024/04/23 07:55:54;;;;;;;13.10;6.13;;;7.10;92.60;;;;;;5491303;26;20257;-62
2024/04/23 07:58:22;;;;;;;10.63;7.18;;;7.20;91.90;;;;;;5491392;26;20210;-62
2024/04/23 08:00:48;;;;;;;8.77;5.70;;;7.30;91.00;;;;;;5490546;26;20267;-62
2024/04/23 08:03:17;;;;;;;8.13;6.40;;;7.40;90.00;;;;;;5490902;26;20238;-62
2024/04/23 08:05:44;;;;;;;7.93;5.68;;;7.50;88.00;;;;;;5491125;26;20239;-61
2024/04/23 08:08:12;;;;;;;11.40;6.93;;;7.70;86.40;;;;;;5491649;26;20227;-62
2024/04/23 08:10:38;;;;;;;8.95;5.65;;;7.80;85.00;;;;;;5492465;26;20330;-62
2024/04/23 08:13:09;;;;;;;8.40;6.30;;;8.00;82.70;;;;;;5493277;26;20638;-62
2024/04/23 08:15:35;;;;;;;9.10;6.43;;;8.20;80.70;;;;;;5491104;26;20307;-62
2024/04/23 08:18:04;;;;;;;11.37;6.60;;;8.40;79.00;;;;;;5494330;26;20228;-62
2024/04/23 08:20:29;;;;;;;7.55;6.00;;;8.60;77.40;;;;;;5498252;26;20452;-62
2024/04/23 08:22:58;;;;;;;7.73;6.10;;;8.70;76.10;;;;;;5498634;26;20792;-62
2024/04/23 08:25:27;;;;;;;7.20;4.83;;;8.90;75.50;;;;;;5500447;26;20455;-62
2024/04/23 08:27:52;;;;;;;8.93;6.37;;;9.00;73.80;;;;;;5500525;26;20546;-61
2024/04/23 08:30:24;;;;;;;7.70;5.97;;;9.20;72.10;;;;;;5500450;26;20444;-61
2024/04/23 08:32:49;;;;;;;6.00;5.40;;;9.20;71.10;;;;;;5501628;26;20222;-61
2024/04/23 08:35:18;;;;;;;6.40;5.30;;;9.20;69.10;;;;;;5500178;26;20503;-62
2024/04/23 08:37:46;;;;;;;12.90;5.30;;;9.30;68.10;;;;;;5502589;26;20220;-62
2024/04/23 08:40:12;;;;;;;7.40;6.30;;;9.40;66.50;;;;;;5502877;26;20500;-63
2024/04/23 08:42:45;;;;;;;7.67;5.40;;;9.50;64.70;;;;;;5502647;26;20459;-63
2024/04/23 08:45:12;;;;;;;6.30;5.10;;;9.60;63.30;;;;;;5501783;26;20447;-63
2024/04/23 08:47:44;;;;;;;5.17;4.60;;;9.60;62.10;;;;;;5499618;26;20455;-62
2024/04/23 08:50:10;;;;;;;5.40;4.57;;;9.70;61.70;;;;;;5500008;26;20456;-62
2024/04/23 08:52:40;;;;;;;7.90;5.53;;;9.80;60.90;;;;;;5500458;26;20566;-63
2024/04/23 08:55:06;;;;;;;7.83;4.77;;;9.90;60.10;;;;;;5499941;26;20280;-62
2024/04/23 08:57:39;;;;;;;7.10;4.53;;;10.00;58.50;;;;;;5501169;26;20448;-62
2024/04/23 09:00:08;;;;;;;5.70;4.77;;;10.10;57.60;;;;;;5503075;26;20524;-63
2024/04/23 09:02:39;;;;;;;5.60;5.00;;;10.30;57.00;;;;;;5503474;26;20508;-61
2024/04/23 09:05:11;;;;;;;8.83;4.70;;;10.60;56.40;;;;;;5502301;26;20462;-62
2024/04/23 09:07:40;;;;;;;6.97;5.17;;;10.70;54.70;;;;;;5498587;26;20475;-62
2024/04/23 09:10:07;;;;;;;7.47;4.80;;;10.60;54.00;;;;;;5496029;26;20902;-62
2024/04/23 09:12:36;;;;;;;7.80;5.30;;;10.70;53.80;;;;;;5493718;26;20597;-62
2024/04/23 09:15:03;;;;;;;8.10;5.57;;;10.80;53.30;;;;;;5493232;26;20534;-62
2024/04/23 09:17:34;;;;;;;6.10;5.00;;;10.80;53.10;;;;;;5493507;26;20491;-63
2024/04/23 09:20:01;;;;;;;6.37;5.30;;;11.00;52.90;;;;;;5493639;26;20578;-63
2024/04/23 09:22:32;;;;;;;5.80;4.80;;;11.00;52.30;;;;;;5493851;26;20468;-63
2024/04/23 09:25:01;;;;;;;7.10;4.53;;;11.00;52.30;;;;;;5493988;26;20564;-63
2024/04/23 09:27:32;;;;;;;5.93;4.97;;;11.10;52.30;;;;;;5494211;26;20460;-62
2024/04/23 09:29:58;;;;;;;6.27;4.90;;;11.10;50.30;;;;;;5493715;26;20495;-62
2024/04/23 09:32:27;;;;;;;4.90;4.33;;;10.90;50.20;;;;;;5493680;26;20582;-63
2024/04/23 09:34:54;;;;;;;5.73;5.13;;;10.90;50.10;;;;;;5493970;26;20693;-63
2024/04/23 09:37:22;;;;;;;5.60;4.80;;;11.00;49.60;;;;;;5494889;26;20492;-62
2024/04/23 09:39:51;;;;;;;6.77;5.03;;;11.10;49.40;;;;;;5493697;26;20584;-63
2024/04/23 09:42:26;;;;;;;5.30;4.73;;;11.00;48.60;;;;;;5493750;26;20472;-63
2024/04/23 09:44:53;;;;;;;6.00;5.00;;;10.90;47.60;;;;;;5494873;26;20496;-63
2024/04/23 09:47:21;;;;;;;7.03;5.20;;;10.70;47.40;;;;;;5497251;26;20452;-63
2024/04/23 09:49:52;;;;;;;5.53;4.63;;;10.50;47.40;;;;;;5499469;26;20492;-63
2024/04/23 09:52:31;;;;;;;5.10;4.60;;;10.40;47.60;;;;;;5497725;26;20530;-62
2024/04/23 09:55:00;;;;;;;5.47;4.50;;;10.40;47.80;;;;;;5504743;26;20509;-63
2024/04/23 09:57:28;;;;;;;5.67;5.17;;;10.30;47.80;;;;;;5503612;26;20515;-63
2024/04/23 09:59:54;;;;;;;4.13;3.73;;;10.20;47.50;;;;;;5497309;26;20524;-63
2024/04/23 10:02:27;;;;;;;4.67;4.17;;;10.00;47.00;;;;;;5497076;26;20551;-64
2024/04/23 10:05:01;;;;;;;4.10;3.70;;;9.90;47.20;;;;;;5498005;26;20576;-62
2024/04/23 10:07:33;;;;;;;4.80;4.23;;;9.70;46.20;;;;;;5497898;26;20451;-64
2024/04/23 10:10:07;;;;;;;4.40;4.00;;;9.50;46.00;;;;;;5496894;26;20447;-63
2024/04/23 10:12:41;;;;;;;4.13;3.73;;;9.50;46.10;;;;;;5495054;26;20634;-62
2024/04/23 10:15:14;;;;;;;4.83;4.40;;;9.70;45.90;;;;;;5494325;26;20516;-63
2024/04/23 10:17:47;;;;;;;4.80;4.40;;;9.90;45.60;;;;;;5493961;26;20459;-63
2024/04/23 10:20:17;;;;;;;4.77;4.10;;;10.30;44.50;;;;;;5493779;26;20837;-63
2024/04/23 10:22:46;;;;;;;4.80;4.40;;;10.50;44.10;;;;;;5493917;26;20463;-64
2024/04/23 10:25:15;;;;;;;7.10;4.50;;;10.40;43.80;;;;;;5494068;26;20562;-64
2024/04/23 10:27:44;;;;;;;6.10;5.13;;;10.20;44.10;;;;;;5493458;26;20555;-62
2024/04/23 10:30:12;;;;;;;5.30;4.80;;;10.10;44.60;;;;;;5494261;26;20496;-61
2024/04/23 10:32:42;;;;;;;5.20;4.70;;;10.00;44.70;;;;;;5493646;26;20468;-63
2024/04/23 10:35:13;;;;;;;5.13;4.63;;;10.00;44.90;;;;;;5497820;26;20929;-63
2024/04/23 10:37:45;;;;;;;5.70;5.10;;;9.90;45.70;;;;;;5500361;26;20440;-63
2024/04/23 10:40:15;;;;;;;5.33;4.80;;;9.90;45.80;;;;;;5503371;26;20456;-63
2024/04/23 10:42:43;;;;;;;8.13;4.73;;;9.90;45.90;;;;;;5501669;26;20472;-62
2024/04/23 10:45:10;;;;;;;5.00;4.30;;;9.80;46.10;;;;;;5497093;26;20444;-63
2024/04/23 10:47:50;;;;;;;6.50;5.00;;;9.80;46.30;;;;;;5496920;26;21046;-64
2024/04/23 10:50:25;;;;;;;7.23;5.40;;;10.00;45.50;;;;;;5495446;26;20916;-62
2024/04/23 10:52:56;;;;;;;5.50;5.00;;;10.10;45.30;;;;;;5493782;26;20471;-64
2024/04/23 10:55:25;;;;;;;5.23;4.73;;;10.20;45.20;;;;;;5494474;26;20969;-63
2024/04/23 10:57:54;;;;;;;4.33;3.93;;;10.40;44.70;;;;;;5493485;26;20452;-63
2024/04/23 11:00:26;;;;;;;4.50;4.10;;;10.30;43.90;;;;;;5493157;26;20905;-62
2024/04/23 11:02:55;;;;;;;4.43;4.03;;;10.40;43.80;;;;;;5493762;26;20469;-63
2024/04/23 11:05:28;;;;;;;4.83;4.33;;;10.50;43.50;;;;;;5493334;26;20460;-63
2024/04/23 11:08:07;;;;;;;4.73;4.30;;;10.70;43.20;;;;;;5493645;26;20460;-63
2024/04/23 11:10:50;;;;;;;4.70;4.23;;;10.80;43.60;;;;;;5493483;26;21005;-63
2024/04/23 11:13:29;;;;;;;5.73;4.47;;;10.90;43.10;;;;;;5493504;26;20567;-63
2024/04/23 11:15:58;;;;;;;5.03;4.10;;;10.90;42.70;;;;;;5493761;26;20440;-63
2024/04/23 11:18:27;;;;;;;5.27;4.83;;;10.70;42.60;;;;;;5494551;26;20459;-64
2024/04/23 11:20:54;;;;;;;6.23;5.17;;;10.60;42.80;;;;;;5493552;26;20781;-63
2024/04/23 11:23:24;;;;;;;5.80;5.20;;;10.50;43.20;;;;;;5493699;26;20881;-63
2024/04/23 11:25:57;;;;;;;5.00;4.60;;;10.40;43.70;;;;;;5493397;26;20506;-64
2024/04/23 11:28:23;;;;;;;7.03;5.00;;;10.20;44.10;;;;;;5493386;26;20987;-62
2024/04/23 11:30:56;;;;;;;6.07;4.97;;;10.30;44.40;;;;;;5493372;26;20503;-63
2024/04/23 11:33:22;;;;;;;6.17;5.57;;;10.40;44.60;;;;;;5493458;26;20468;-63
2024/04/23 11:35:53;;;;;;;5.80;4.57;;;10.60;44.60;;;;;;5493034;26;20448;-62
2024/04/23 11:38:21;;;;;;;4.07;3.67;;;10.70;44.00;;;;;;5493470;26;20858;-62
2024/04/23 11:40:47;;;;;;;5.87;4.10;;;10.80;42.70;;;;;;5492485;26;20444;-62
2024/04/23 11:43:20;;;;;;;5.20;4.20;;;10.80;41.30;;;;;;5492474;26;20464;-62
2024/04/23 11:45:47;;;;;;;5.73;4.37;;;10.70;40.80;;;;;;5492618;26;20453;-62
2024/04/23 11:48:17;;;;;;;5.10;4.60;;;10.60;41.00;;;;;;5493184;26;20533;-63
2024/04/23 11:50:45;;;;;;;6.30;4.13;;;10.40;41.30;;;;;;5494107;26;20447;-61
2024/04/23 11:53:14;;;;;;;6.73;5.73;;;10.30;41.90;;;;;;5494428;26;20522;-62
2024/04/23 11:55:40;;;;;;;5.60;5.10;;;10.20;42.30;;;;;;5494165;26;20584;-62
2024/04/23 11:58:09;;;;;;;7.70;5.30;;;10.20;42.90;;;;;;5492628;26;21048;-63
2024/04/23 12:00:41;;;;;;;5.27;4.77;;;10.00;43.50;;;;;;5493527;26;20551;-63
2024/04/23 12:03:11;;;;;;;5.90;4.97;;;9.90;45.00;;;;;;5493097;26;20463;-63
2024/04/23 12:05:37;;;;;;;5.37;4.87;;;9.90;45.50;;;;;;5492668;26;20509;-64
2024/04/23 12:08:06;;;;;;;5.50;5.00;;;10.00;44.90;;;;;;5492725;26;20821;-63
2024/04/23 12:10:33;;;;;;;9.37;6.10;;;10.20;45.10;;;;;;5492717;26;20450;-61
2024/04/23 12:13:03;;;;;;;6.03;5.30;;;10.40;45.00;;;;;;5491815;26;20502;-63
2024/04/23 12:15:30;;;;;;;5.20;4.47;;;10.50;44.90;;;;;;5498218;26;20489;-63
2024/04/23 12:18:01;;;;;;;6.53;5.80;;;10.80;44.80;;;;;;5499800;26;20500;-63
2024/04/23 12:20:27;;;;;;;5.93;5.37;;;10.90;44.50;;;;;;5493840;26;20570;-62
2024/04/23 12:23:07;;;;;;;5.60;4.90;;;11.00;44.40;;;;;;5495050;26;20462;-62
2024/04/23 12:25:33;;;;;;;7.40;6.03;;;11.10;44.40;;;;;;5497627;26;20559;-63
2024/04/23 12:28:01;;;;;;;8.03;6.40;;;11.50;44.30;;;;;;5494420;26;20500;-61
2024/04/23 12:30:27;;;;;;;5.50;4.87;;;11.70;43.90;;;;;;5495449;26;20558;-62
2024/04/23 12:32:56;;;;;;;5.90;5.37;;;11.80;43.40;;;;;;5493806;26;20479;-62
2024/04/23 12:35:24;;;;;;;8.30;5.73;;;11.90;43.30;;;;;;5496601;26;20254;-62
2024/04/23 12:38:00;;;;;;;5.87;5.03;;;12.10;43.30;;;;;;5494280;26;20457;-61
2024/04/23 12:40:26;;;;;;;7.80;5.07;;;12.50;42.90;;;;;;5494597;26;20442;-64
2024/04/23 12:42:56;;;;;;;5.27;4.77;;;12.80;42.30;;;;;;5494166;26;20462;-63
2024/04/23 12:45:22;;;;;;;5.17;4.77;;;13.10;41.80;;;;;;5494079;26;20446;-64
2024/04/23 12:47:50;;;;;;;6.73;4.73;;;13.10;41.10;;;;;;5495221;26;20513;-64
2024/04/23 12:50:18;;;;;;;6.87;5.83;;;12.90;41.10;;;;;;5495402;26;20603;-62
2024/04/23 12:52:49;;;;;;;6.00;5.40;;;12.80;41.30;;;;;;5493964;26;20454;-62
2024/04/23 12:55:14;;;;;;;5.90;4.63;;;12.70;41.20;;;;;;5495181;26;20458;-63
2024/04/23 12:57:43;;;;;;;5.40;4.80;;;12.60;41.10;;;;;;5494961;26;20939;-63
2024/04/23 13:00:10;;;;;;;5.40;4.43;;;12.40;41.30;;;;;;5497222;26;20224;-63
2024/04/23 13:02:38;;;;;;;5.50;5.00;;;12.30;41.20;;;;;;5498664;26;20573;-63
2024/04/23 13:05:04;;;;;;;5.13;4.60;;;12.20;41.30;;;;;;5499940;26;20450;-63
2024/04/23 13:07:33;;;;;;;5.67;5.17;;;12.00;41.40;;;;;;5506031;26;20453;-63